sensor_id;sensor_type;location;lat;lon;timestamp;pressure;altitude;pressure_sealevel;temperature;humidity
30875;BME280;17581;43.222;27.924;2022-10-30T00:00:23;101457.81;;;13.50;81.12
30875;BME280;17581;43.222;27.924;2022-10-30T00:02:48;101422.34;;;13.33;80.89
30875;BME280;17581;43.222;27.924;2022-10-30T00:05:14;101423.16;;;13.33;80.83
30875;BME280;17581;43.222;27.924;2022-10-30T00:07:40;101454.97;;;13.52;80.74
30875;BME280;17581;43.222;27.924;2022-10-30T00:10:06;101446.53;;;13.45;80.96
30875;BME280;17581;43.222;27.924;2022-10-30T00:12:31;101447.00;;;13.50;81.28
30875;BME280;17581;43.222;27.924;2022-10-30T00:14:58;101448.59;;;13.53;81.26
30875;BME280;17581;43.222;27.924;2022-10-30T00:17:23;101433.59;;;13.49;81.20
30875;BME280;17581;43.222;27.924;2022-10-30T00:19:48;101440.63;;;13.51;81.73
30875;BME280;17581;43.222;27.924;2022-10-30T00:22:14;101450.19;;;13.55;81.75
30875;BME280;17581;43.222;27.924;2022-10-30T00:24:39;101409.56;;;13.35;82.06
30875;BME280;17581;43.222;27.924;2022-10-30T00:27:05;101422.31;;;13.44;82.30
30875;BME280;17581;43.222;27.924;2022-10-30T00:29:30;101430.19;;;13.47;82.22
30875;BME280;17581;43.222;27.924;2022-10-30T00:31:56;101412.00;;;13.38;82.22
30875;BME280;17581;43.222;27.924;2022-10-30T00:34:24;101422.44;;;13.42;82.22
30875;BME280;17581;43.222;27.924;2022-10-30T00:36:49;101423.03;;;13.46;82.73
30875;BME280;17581;43.222;27.924;2022-10-30T00:39:15;101427.00;;;13.42;82.41
30875;BME280;17581;43.222;27.924;2022-10-30T00:41:41;101435.59;;;13.47;82.19
30875;BME280;17581;43.222;27.924;2022-10-30T00:44:36;101430.19;;;13.47;82.08
30875;BME280;17581;43.222;27.924;2022-10-30T00:47:06;101389.41;;;13.28;81.76
30875;BME280;17581;43.222;27.924;2022-10-30T00:49:38;101419.38;;;13.47;81.73
30875;BME280;17581;43.222;27.924;2022-10-30T00:52:08;101423.03;;;13.46;81.58
30875;BME280;17581;43.222;27.924;2022-10-30T00:54:34;101415.81;;;13.35;80.97
30875;BME280;17581;43.222;27.924;2022-10-30T00:57:01;101414.97;;;13.35;80.98
30875;BME280;17581;43.222;27.924;2022-10-30T00:59:32;101410.03;;;13.29;81.40
30875;BME280;17581;43.222;27.924;2022-10-30T01:02:02;101386.22;;;13.12;81.23
30875;BME280;17581;43.222;27.924;2022-10-30T01:04:28;101391.63;;;13.12;81.48
30875;BME280;17581;43.222;27.924;2022-10-30T01:06:56;101404.66;;;13.18;81.46
30875;BME280;17581;43.222;27.924;2022-10-30T01:09:23;101397.53;;;13.17;81.93
30875;BME280;17581;43.222;27.924;2022-10-30T01:11:48;101398.50;;;13.16;82.12
30875;BME280;17581;43.222;27.924;2022-10-30T01:14:16;101394.19;;;13.13;82.14
30875;BME280;17581;43.222;27.924;2022-10-30T01:25:19;101387.44;;;13.19;82.14
30875;BME280;17581;43.222;27.924;2022-10-30T01:36:25;101375.66;;;13.20;82.01
30875;BME280;17581;43.222;27.924;2022-10-30T01:38:57;101381.41;;;13.04;81.72
30875;BME280;17581;43.222;27.924;2022-10-30T01:41:23;101384.59;;;12.98;81.22
30875;BME280;17581;43.222;27.924;2022-10-30T01:43:53;101384.22;;;12.91;80.81
30875;BME280;17581;43.222;27.924;2022-10-30T01:54:38;101368.78;;;12.93;79.75
30875;BME280;17581;43.222;27.924;2022-10-30T01:57:15;101331.31;;;12.78;79.63
30875;BME280;17581;43.222;27.924;2022-10-30T02:02:27;101368.88;;;12.92;79.09
30875;BME280;17581;43.222;27.924;2022-10-30T02:04:52;101365.31;;;12.91;79.12
30875;BME280;17581;43.222;27.924;2022-10-30T02:07:18;101367.28;;;12.89;79.36
30875;BME280;17581;43.222;27.924;2022-10-30T02:09:44;101363.09;;;12.85;79.07
30875;BME280;17581;43.222;27.924;2022-10-30T02:12:09;101374.63;;;12.76;78.96
30875;BME280;17581;43.222;27.924;2022-10-30T02:14:39;101378.28;;;12.75;78.89
30875;BME280;17581;43.222;27.924;2022-10-30T02:17:07;101368.34;;;12.76;78.72
30875;BME280;17581;43.222;27.924;2022-10-30T02:19:34;101365.78;;;12.74;78.75
30875;BME280;17581;43.222;27.924;2022-10-30T02:22:00;101367.97;;;12.69;77.91
30875;BME280;17581;43.222;27.924;2022-10-30T02:24:26;101366.13;;;12.59;77.93
30875;BME280;17581;43.222;27.924;2022-10-30T02:26:51;101368.09;;;12.57;77.95
30875;BME280;17581;43.222;27.924;2022-10-30T02:29:17;101378.28;;;12.53;78.02
30875;BME280;17581;43.222;27.924;2022-10-30T02:31:45;101352.47;;;12.38;78.44
30875;BME280;17581;43.222;27.924;2022-10-30T02:34:11;101361.06;;;12.43;78.17
30875;BME280;17581;43.222;27.924;2022-10-30T02:36:36;101355.66;;;12.43;78.06
30875;BME280;17581;43.222;27.924;2022-10-30T02:39:02;101362.78;;;12.44;77.96
30875;BME280;17581;43.222;27.924;2022-10-30T02:41:28;101363.03;;;12.41;78.04
30875;BME280;17581;43.222;27.924;2022-10-30T02:43:53;101362.78;;;12.44;78.02
30875;BME280;17581;43.222;27.924;2022-10-30T02:46:19;101339.19;;;12.24;77.95
30875;BME280;17581;43.222;27.924;2022-10-30T02:48:44;101353.19;;;12.29;77.42
30875;BME280;17581;43.222;27.924;2022-10-30T02:51:10;101356.22;;;12.24;77.33
30875;BME280;17581;43.222;27.924;2022-10-30T02:53:36;101358.66;;;12.16;77.27
30875;BME280;17581;43.222;27.924;2022-10-30T02:56:07;101360.66;;;12.25;77.62
30875;BME280;17581;43.222;27.924;2022-10-30T02:58:33;101323.03;;;12.00;77.63
30875;BME280;17581;43.222;27.924;2022-10-30T03:01:16;101367.25;;;12.21;77.55
30875;BME280;17581;43.222;27.924;2022-10-30T03:03:42;101347.00;;;12.16;77.98
30875;BME280;17581;43.222;27.924;2022-10-30T03:06:10;101367.66;;;12.28;78.21
30875;BME280;17581;43.222;27.924;2022-10-30T03:08:36;101339.06;;;12.25;79.41
30875;BME280;17581;43.222;27.924;2022-10-30T03:11:07;101369.00;;;12.33;79.61
30875;BME280;17581;43.222;27.924;2022-10-30T03:13:34;101360.03;;;12.33;80.13
30875;BME280;17581;43.222;27.924;2022-10-30T03:16:05;101364.94;;;12.28;80.64
30875;BME280;17581;43.222;27.924;2022-10-30T03:18:31;101357.31;;;12.22;80.84
30875;BME280;17581;43.222;27.924;2022-10-30T03:20:58;101363.59;;;12.22;81.07
30875;BME280;17581;43.222;27.924;2022-10-30T03:23:23;101359.06;;;12.23;80.91
30875;BME280;17581;43.222;27.924;2022-10-30T03:25:53;101336.94;;;12.07;80.77
30875;BME280;17581;43.222;27.924;2022-10-30T03:28:22;101360.25;;;12.19;81.27
30875;BME280;17581;43.222;27.924;2022-10-30T03:30:49;101330.09;;;11.90;81.42
30875;BME280;17581;43.222;27.924;2022-10-30T03:33:15;101348.81;;;12.04;81.13
30875;BME280;17581;43.222;27.924;2022-10-30T03:35:44;101360.16;;;11.96;81.08
30875;BME280;17581;43.222;27.924;2022-10-30T03:38:13;101356.81;;;11.93;80.64
30875;BME280;17581;43.222;27.924;2022-10-30T03:40:39;101345.22;;;11.92;80.58
30875;BME280;17581;43.222;27.924;2022-10-30T03:43:04;101361.16;;;11.95;80.55
30875;BME280;17581;43.222;27.924;2022-10-30T03:45:31;101353.41;;;11.91;80.52
30875;BME280;17581;43.222;27.924;2022-10-30T03:48:01;101358.84;;;11.78;80.19
30875;BME280;17581;43.222;27.924;2022-10-30T03:50:27;101360.41;;;11.70;80.75
30875;BME280;17581;43.222;27.924;2022-10-30T03:52:53;101359.72;;;11.66;81.43
30875;BME280;17581;43.222;27.924;2022-10-30T03:55:19;101315.53;;;11.45;81.34
30875;BME280;17581;43.222;27.924;2022-10-30T03:57:44;101341.03;;;11.52;81.56
30875;BME280;17581;43.222;27.924;2022-10-30T04:00:11;101349.41;;;11.60;81.95
30875;BME280;17581;43.222;27.924;2022-10-30T04:02:37;101336.91;;;11.59;81.79
30875;BME280;17581;43.222;27.924;2022-10-30T04:05:02;101305.25;;;11.50;82.22
30875;BME280;17581;43.222;27.924;2022-10-30T04:07:28;101302.00;;;11.58;82.62
30875;BME280;17581;43.222;27.924;2022-10-30T04:09:54;101339.34;;;11.75;82.24
30875;BME280;17581;43.222;27.924;2022-10-30T04:12:20;101327.16;;;11.69;81.95
30875;BME280;17581;43.222;27.924;2022-10-30T04:14:45;101339.00;;;11.79;82.57
30875;BME280;17581;43.222;27.924;2022-10-30T04:17:10;101333.09;;;11.74;81.93
30875;BME280;17581;43.222;27.924;2022-10-30T04:19:36;101330.94;;;11.79;81.96
30875;BME280;17581;43.222;27.924;2022-10-30T04:22:01;101330.16;;;11.77;82.38
30875;BME280;17581;43.222;27.924;2022-10-30T04:24:27;101320.50;;;11.62;81.28
30875;BME280;17581;43.222;27.924;2022-10-30T04:26:52;101336.66;;;11.62;80.87
30875;BME280;17581;43.222;27.924;2022-10-30T04:29:18;101329.84;;;11.45;81.07
30875;BME280;17581;43.222;27.924;2022-10-30T04:31:43;101326.44;;;11.43;81.10
30875;BME280;17581;43.222;27.924;2022-10-30T04:34:08;101343.19;;;11.47;81.87
30875;BME280;17581;43.222;27.924;2022-10-30T04:36:35;101332.41;;;11.47;81.82
30875;BME280;17581;43.222;27.924;2022-10-30T04:39:00;101325.19;;;11.47;82.36
30875;BME280;17581;43.222;27.924;2022-10-30T04:41:26;101332.88;;;11.41;82.08
30875;BME280;17581;43.222;27.924;2022-10-30T04:43:52;101331.53;;;11.23;81.97
30875;BME280;17581;43.222;27.924;2022-10-30T04:46:17;101340.38;;;11.25;82.05
30875;BME280;17581;43.222;27.924;2022-10-30T04:48:43;101336.78;;;11.37;81.71
30875;BME280;17581;43.222;27.924;2022-10-30T04:51:09;101343.88;;;11.38;82.08
30875;BME280;17581;43.222;27.924;2022-10-30T04:53:37;101336.66;;;11.38;81.35
30875;BME280;17581;43.222;27.924;2022-10-30T04:56:03;101312.91;;;11.20;80.93
30875;BME280;17581;43.222;27.924;2022-10-30T04:58:28;101323.44;;;11.23;80.79
30875;BME280;17581;43.222;27.924;2022-10-30T05:00:54;101304.31;;;11.15;80.83
30875;BME280;17581;43.222;27.924;2022-10-30T05:03:22;101339.72;;;11.34;80.71
30875;BME280;17581;43.222;27.924;2022-10-30T05:05:55;101332.69;;;11.31;81.25
30875;BME280;17581;43.222;27.924;2022-10-30T05:08:21;101343.41;;;11.44;81.69
30875;BME280;17581;43.222;27.924;2022-10-30T05:10:46;101343.97;;;11.49;81.75
30875;BME280;17581;43.222;27.924;2022-10-30T05:13:12;101340.91;;;11.54;82.08
30875;BME280;17581;43.222;27.924;2022-10-30T05:15:37;101340.47;;;11.60;82.13
30875;BME280;17581;43.222;27.924;2022-10-30T05:18:03;101341.59;;;11.68;82.75
30875;BME280;17581;43.222;27.924;2022-10-30T05:20:28;101339.25;;;11.76;81.97
30875;BME280;17581;43.222;27.924;2022-10-30T05:22:55;101326.97;;;11.72;82.23
30875;BME280;17581;43.222;27.924;2022-10-30T05:25:21;101257.47;;;11.41;82.38
30875;BME280;17581;43.222;27.924;2022-10-30T05:27:47;101336.13;;;11.93;82.38
30875;BME280;17581;43.222;27.924;2022-10-30T05:30:12;101340.88;;;11.90;82.38
30875;BME280;17581;43.222;27.924;2022-10-30T05:32:37;101343.66;;;12.01;82.37
30875;BME280;17581;43.222;27.924;2022-10-30T05:35:03;101348.56;;;12.07;83.02
30875;BME280;17581;43.222;27.924;2022-10-30T05:37:29;101326.78;;;12.10;82.72
30875;BME280;17581;43.222;27.924;2022-10-30T05:39:54;101346.06;;;12.28;83.04
30875;BME280;17581;43.222;27.924;2022-10-30T05:42:19;101334.56;;;12.37;83.35
30875;BME280;17581;43.222;27.924;2022-10-30T05:44:45;101343.28;;;12.51;82.78
30875;BME280;17581;43.222;27.924;2022-10-30T05:47:10;101334.22;;;12.52;82.62
30875;BME280;17581;43.222;27.924;2022-10-30T05:49:36;101340.00;;;12.59;82.50
30875;BME280;17581;43.222;27.924;2022-10-30T05:52:01;101348.00;;;12.72;82.80
30875;BME280;17581;43.222;27.924;2022-10-30T05:54:26;101344.34;;;12.84;82.52
30875;BME280;17581;43.222;27.924;2022-10-30T05:56:52;101336.56;;;12.90;82.11
30875;BME280;17581;43.222;27.924;2022-10-30T05:59:18;101329.47;;;13.00;82.27
30875;BME280;17581;43.222;27.924;2022-10-30T06:01:43;101344.72;;;13.13;81.77
30875;BME280;17581;43.222;27.924;2022-10-30T06:04:08;101342.03;;;13.24;81.30
30875;BME280;17581;43.222;27.924;2022-10-30T06:06:34;101337.31;;;13.37;81.21
30875;BME280;17581;43.222;27.924;2022-10-30T06:08:59;101303.22;;;13.25;80.93
30875;BME280;17581;43.222;27.924;2022-10-30T06:11:25;101333.88;;;13.46;79.82
30875;BME280;17581;43.222;27.924;2022-10-30T06:13:50;101325.25;;;13.52;79.06
30875;BME280;17581;43.222;27.924;2022-10-30T06:16:16;101316.47;;;13.39;78.67
30875;BME280;17581;43.222;27.924;2022-10-30T06:18:41;101335.81;;;13.55;78.10
30875;BME280;17581;43.222;27.924;2022-10-30T06:21:07;101339.25;;;13.57;77.81
30875;BME280;17581;43.222;27.924;2022-10-30T06:23:32;101313.25;;;13.45;77.12
30875;BME280;17581;43.222;27.924;2022-10-30T06:25:58;101338.50;;;13.66;76.71
30875;BME280;17581;43.222;27.924;2022-10-30T06:28:23;101335.31;;;13.61;76.43
30875;BME280;17581;43.222;27.924;2022-10-30T06:30:48;101342.59;;;13.49;76.70
30875;BME280;17581;43.222;27.924;2022-10-30T06:33:14;101348.09;;;13.59;76.53
30875;BME280;17581;43.222;27.924;2022-10-30T06:35:39;101333.00;;;13.56;76.39
30875;BME280;17581;43.222;27.924;2022-10-30T06:38:05;101340.59;;;13.62;76.33
30875;BME280;17581;43.222;27.924;2022-10-30T06:40:30;101338.25;;;13.69;76.41
30875;BME280;17581;43.222;27.924;2022-10-30T06:42:56;101316.78;;;13.56;76.21
30875;BME280;17581;43.222;27.924;2022-10-30T06:45:22;101308.28;;;13.61;76.17
30875;BME280;17581;43.222;27.924;2022-10-30T06:47:48;101343.25;;;13.85;76.46
30875;BME280;17581;43.222;27.924;2022-10-30T06:50:16;101339.28;;;13.89;76.48
30875;BME280;17581;43.222;27.924;2022-10-30T06:52:43;101335.06;;;13.96;76.74
30875;BME280;17581;43.222;27.924;2022-10-30T06:55:09;101339.84;;;14.03;76.79
30875;BME280;17581;43.222;27.924;2022-10-30T06:57:35;101335.16;;;14.05;76.71
30875;BME280;17581;43.222;27.924;2022-10-30T07:00:00;101294.41;;;13.86;76.76
30875;BME280;17581;43.222;27.924;2022-10-30T07:02:26;101340.81;;;14.02;76.90
30875;BME280;17581;43.222;27.924;2022-10-30T07:04:51;101321.66;;;13.94;76.59
30875;BME280;17581;43.222;27.924;2022-10-30T07:07:17;101323.66;;;13.92;76.48
30875;BME280;17581;43.222;27.924;2022-10-30T07:09:43;101327.06;;;13.94;76.71
30875;BME280;17581;43.222;27.924;2022-10-30T07:12:10;101315.16;;;13.97;76.66
30875;BME280;17581;43.222;27.924;2022-10-30T07:14:36;101326.31;;;14.03;76.67
30875;BME280;17581;43.222;27.924;2022-10-30T07:17:01;101314.38;;;14.06;76.39
30875;BME280;17581;43.222;27.924;2022-10-30T07:19:27;101318.16;;;14.14;76.71
30875;BME280;17581;43.222;27.924;2022-10-30T07:21:52;101321.03;;;14.23;76.44
30875;BME280;17581;43.222;27.924;2022-10-30T07:24:18;101289.38;;;14.13;76.41
30875;BME280;17581;43.222;27.924;2022-10-30T07:26:43;101293.13;;;14.22;76.18
30875;BME280;17581;43.222;27.924;2022-10-30T07:29:09;101308.34;;;14.34;76.29
30875;BME280;17581;43.222;27.924;2022-10-30T07:31:34;101307.25;;;14.37;75.85
30875;BME280;17581;43.222;27.924;2022-10-30T07:33:59;101307.16;;;14.48;75.48
30875;BME280;17581;43.222;27.924;2022-10-30T07:36:25;101272.78;;;14.39;75.51
30875;BME280;17581;43.222;27.924;2022-10-30T07:38:51;101293.84;;;14.65;75.36
30875;BME280;17581;43.222;27.924;2022-10-30T07:41:18;101298.34;;;14.76;74.88
30875;BME280;17581;43.222;27.924;2022-10-30T07:43:44;101295.78;;;14.84;74.27
30875;BME280;17581;43.222;27.924;2022-10-30T07:46:09;101282.69;;;14.89;74.57
30875;BME280;17581;43.222;27.924;2022-10-30T07:48:35;101293.03;;;15.05;74.00
30875;BME280;17581;43.222;27.924;2022-10-30T07:51:00;101290.34;;;15.14;73.77
30875;BME280;17581;43.222;27.924;2022-10-30T07:53:26;101275.97;;;15.23;72.62
30875;BME280;17581;43.222;27.924;2022-10-30T07:55:51;101281.00;;;15.38;72.69
30875;BME280;17581;43.222;27.924;2022-10-30T07:58:17;101263.66;;;15.50;72.48
30875;BME280;17581;43.222;27.924;2022-10-30T08:00:42;101266.34;;;15.69;72.03
30875;BME280;17581;43.222;27.924;2022-10-30T08:03:10;101231.69;;;15.63;70.93
30875;BME280;17581;43.222;27.924;2022-10-30T08:05:35;101253.22;;;15.93;70.02
30875;BME280;17581;43.222;27.924;2022-10-30T08:08:01;101257.22;;;16.08;69.86
30875;BME280;17581;43.222;27.924;2022-10-30T08:10:27;101256.31;;;16.27;69.24
30875;BME280;17581;43.222;27.924;2022-10-30T08:12:52;101237.00;;;16.40;68.62
30875;BME280;17581;43.222;27.924;2022-10-30T08:15:18;101251.53;;;16.58;67.64
30875;BME280;17581;43.222;27.924;2022-10-30T08:17:45;101187.44;;;16.38;67.05
30875;BME280;17581;43.222;27.924;2022-10-30T08:20:13;101247.00;;;16.85;66.66
30875;BME280;17581;43.222;27.924;2022-10-30T08:22:46;101238.38;;;17.00;66.28
30875;BME280;17581;43.222;27.924;2022-10-30T08:25:12;101241.72;;;17.11;65.18
30875;BME280;17581;43.222;27.924;2022-10-30T08:27:38;101240.22;;;17.26;64.79
30875;BME280;17581;43.222;27.924;2022-10-30T08:30:03;101246.13;;;17.39;64.48
30875;BME280;17581;43.222;27.924;2022-10-30T08:32:29;101208.06;;;17.39;64.48
30875;BME280;17581;43.222;27.924;2022-10-30T08:34:54;101213.69;;;17.56;63.42
30875;BME280;17581;43.222;27.924;2022-10-30T08:37:20;101241.88;;;17.90;63.56
30875;BME280;17581;43.222;27.924;2022-10-30T08:39:45;101235.88;;;18.04;63.51
30875;BME280;17581;43.222;27.924;2022-10-30T08:42:10;101227.84;;;18.20;61.88
30875;BME280;17581;43.222;27.924;2022-10-30T08:44:36;101225.91;;;18.38;60.76
30875;BME280;17581;43.222;27.924;2022-10-30T08:47:01;101235.56;;;18.51;60.19
30875;BME280;17581;43.222;27.924;2022-10-30T08:49:27;101219.59;;;18.56;59.57
30875;BME280;17581;43.222;27.924;2022-10-30T08:51:52;101225.63;;;18.67;60.00
30875;BME280;17581;43.222;27.924;2022-10-30T08:54:17;101227.25;;;18.86;59.43
30875;BME280;17581;43.222;27.924;2022-10-30T08:56:43;101214.69;;;19.01;59.07
30875;BME280;17581;43.222;27.924;2022-10-30T08:59:08;101218.81;;;19.13;58.58
30875;BME280;17581;43.222;27.924;2022-10-30T09:01:34;101213.41;;;19.29;58.22
30875;BME280;17581;43.222;27.924;2022-10-30T09:04:01;101215.53;;;19.43;57.72
30875;BME280;17581;43.222;27.924;2022-10-30T09:06:26;101180.72;;;19.45;57.65
30875;BME280;17581;43.222;27.924;2022-10-30T09:08:51;101198.84;;;19.63;56.50
30875;BME280;17581;43.222;27.924;2022-10-30T09:11:17;101193.53;;;19.85;56.30
30875;BME280;17581;43.222;27.924;2022-10-30T09:13:42;101206.88;;;19.96;55.84
30875;BME280;17581;43.222;27.924;2022-10-30T09:16:08;101200.19;;;20.07;55.32
30875;BME280;17581;43.222;27.924;2022-10-30T09:18:33;101194.50;;;20.25;54.75
30875;BME280;17581;43.222;27.924;2022-10-30T09:20:59;101197.09;;;20.34;53.92
30875;BME280;17581;43.222;27.924;2022-10-30T09:23:24;101179.69;;;20.35;53.33
30875;BME280;17581;43.222;27.924;2022-10-30T09:25:49;101177.28;;;20.40;53.51
30875;BME280;17581;43.222;27.924;2022-10-30T09:28:15;101174.88;;;20.45;53.00
30875;BME280;17581;43.222;27.924;2022-10-30T09:30:40;101175.16;;;20.58;52.90
30875;BME280;17581;43.222;27.924;2022-10-30T09:33:06;101167.91;;;20.74;52.56
30875;BME280;17581;43.222;27.924;2022-10-30T09:35:31;101149.84;;;20.73;51.86
30875;BME280;17581;43.222;27.924;2022-10-30T09:37:57;101154.94;;;20.76;51.53
30875;BME280;17581;43.222;27.924;2022-10-30T09:40:40;101162.09;;;20.85;51.10
30875;BME280;17581;43.222;27.924;2022-10-30T09:57:01;101077.00;;;21.10;49.05
30875;BME280;17581;43.222;27.924;2022-10-30T10:02:07;101120.59;;;21.57;48.98
30875;BME280;17581;43.222;27.924;2022-10-30T10:04:42;101114.66;;;21.68;48.38
30875;BME280;17581;43.222;27.924;2022-10-30T10:07:36;101116.59;;;21.83;48.05
30875;BME280;17581;43.222;27.924;2022-10-30T10:10:10;101122.50;;;21.94;47.68
30875;BME280;17581;43.222;27.924;2022-10-30T10:12:43;101085.03;;;21.87;46.90
30875;BME280;17581;43.222;27.924;2022-10-30T10:15:14;101104.34;;;22.08;46.78
30875;BME280;17581;43.222;27.924;2022-10-30T10:17:44;101104.78;;;22.19;46.45
30875;BME280;17581;43.222;27.924;2022-10-30T10:20:19;101093.97;;;22.18;46.01
30875;BME280;17581;43.222;27.924;2022-10-30T10:22:51;101072.72;;;22.20;45.76
30875;BME280;17581;43.222;27.924;2022-10-30T10:25:19;101089.25;;;22.41;45.54
30875;BME280;17581;43.222;27.924;2022-10-30T10:30:17;101084.88;;;22.61;45.07
30875;BME280;17581;43.222;27.924;2022-10-30T10:32:59;101091.50;;;22.67;44.54
30875;BME280;17581;43.222;27.924;2022-10-30T10:36:09;101078.66;;;22.67;44.47
30875;BME280;17581;43.222;27.924;2022-10-30T10:52:22;101060.09;;;23.26;43.71
30875;BME280;17581;43.222;27.924;2022-10-30T10:54:54;101058.41;;;23.47;43.36
30875;BME280;17581;43.222;27.924;2022-10-30T10:57:28;101036.50;;;23.53;42.95
30875;BME280;17581;43.222;27.924;2022-10-30T11:00:05;101038.06;;;23.62;42.37
30875;BME280;17581;43.222;27.924;2022-10-30T11:02:39;101050.03;;;23.82;42.11
30875;BME280;17581;43.222;27.924;2022-10-30T11:05:15;101044.00;;;23.94;41.86
30875;BME280;17581;43.222;27.924;2022-10-30T11:07:46;101042.78;;;24.03;41.45
30875;BME280;17581;43.222;27.924;2022-10-30T11:10:14;101032.66;;;24.10;41.18
30875;BME280;17581;43.222;27.924;2022-10-30T11:12:40;101034.47;;;24.24;41.26
30875;BME280;17581;43.222;27.924;2022-10-30T11:18:07;101033.28;;;24.40;41.00
30875;BME280;17581;43.222;27.924;2022-10-30T11:20:43;101025.06;;;24.46;40.35
30875;BME280;17581;43.222;27.924;2022-10-30T11:26:02;100987.22;;;24.55;40.29
30875;BME280;17581;43.222;27.924;2022-10-30T11:28:41;100986.41;;;24.67;39.91
30875;BME280;17581;43.222;27.924;2022-10-30T11:33:43;101004.19;;;24.78;39.40
30875;BME280;17581;43.222;27.924;2022-10-30T11:36:09;101006.38;;;24.82;39.69
30875;BME280;17581;43.222;27.924;2022-10-30T11:38:34;100994.53;;;24.88;39.49
30875;BME280;17581;43.222;27.924;2022-10-30T11:41:01;100989.47;;;24.92;39.18
30875;BME280;17581;43.222;27.924;2022-10-30T11:43:26;100993.44;;;24.89;39.02
30875;BME280;17581;43.222;27.924;2022-10-30T11:45:53;100980.53;;;24.90;39.17
30875;BME280;17581;43.222;27.924;2022-10-30T11:48:27;100987.53;;;24.99;39.00
30875;BME280;17581;43.222;27.924;2022-10-30T11:50:58;100990.91;;;24.88;44.95
30875;BME280;17581;43.222;27.924;2022-10-30T11:53:28;100987.09;;;24.82;46.50
30875;BME280;17581;43.222;27.924;2022-10-30T11:55:56;100994.00;;;24.65;47.71
30875;BME280;17581;43.222;27.924;2022-10-30T11:58:32;100995.88;;;24.52;48.71
30875;BME280;17581;43.222;27.924;2022-10-30T12:03:42;100990.56;;;23.68;51.38
30875;BME280;17581;43.222;27.924;2022-10-30T12:08:33;100988.41;;;23.15;53.56
30875;BME280;17581;43.222;27.924;2022-10-30T12:11:01;100988.03;;;22.75;54.70
30875;BME280;17581;43.222;27.924;2022-10-30T12:13:34;100983.72;;;22.66;54.64
30875;BME280;17581;43.222;27.924;2022-10-30T12:16:08;100991.09;;;22.51;55.33
30875;BME280;17581;43.222;27.924;2022-10-30T12:18:35;100985.63;;;22.51;55.60
30875;BME280;17581;43.222;27.924;2022-10-30T12:21:01;100952.81;;;22.22;56.33
30875;BME280;17581;43.222;27.924;2022-10-30T12:23:28;100980.03;;;22.09;56.44
30875;BME280;17581;43.222;27.924;2022-10-30T12:25:56;100986.66;;;22.00;56.62
30875;BME280;17581;43.222;27.924;2022-10-30T12:28:25;100996.38;;;22.02;55.99
30875;BME280;17581;43.222;27.924;2022-10-30T12:30:58;100995.09;;;21.98;55.98
30875;BME280;17581;43.222;27.924;2022-10-30T12:35:58;101001.66;;;21.75;56.76
30875;BME280;17581;43.222;27.924;2022-10-30T12:38:28;100995.69;;;21.56;57.56
30875;BME280;17581;43.222;27.924;2022-10-30T12:41:04;101002.97;;;21.49;58.37
30875;BME280;17581;43.222;27.924;2022-10-30T12:43:34;100986.13;;;21.38;58.79
30875;BME280;17581;43.222;27.924;2022-10-30T12:48:53;100991.28;;;21.18;60.08
30875;BME280;17581;43.222;27.924;2022-10-30T12:51:31;100985.25;;;21.00;60.66
30875;BME280;17581;43.222;27.924;2022-10-30T12:56:55;101000.09;;;21.28;59.88
30875;BME280;17581;43.222;27.924;2022-10-30T12:59:38;100993.25;;;21.01;61.11
30875;BME280;17581;43.222;27.924;2022-10-30T13:10:49;100990.75;;;20.46;63.54
30875;BME280;17581;43.222;27.924;2022-10-30T13:13:34;100998.09;;;20.46;63.96
30875;BME280;17581;43.222;27.924;2022-10-30T13:16:02;100993.34;;;20.40;64.59
30875;BME280;17581;43.222;27.924;2022-10-30T13:18:31;100990.50;;;20.33;64.45
30875;BME280;17581;43.222;27.924;2022-10-30T13:21:10;100999.38;;;20.35;65.13
30875;BME280;17581;43.222;27.924;2022-10-30T13:26:42;101000.81;;;20.07;67.09
30875;BME280;17581;43.222;27.924;2022-10-30T13:34:34;100996.94;;;20.01;69.23
30875;BME280;17581;43.222;27.924;2022-10-30T13:40:08;101006.19;;;19.92;70.61
30875;BME280;17581;43.222;27.924;2022-10-30T13:42:45;101008.72;;;20.02;70.34
30875;BME280;17581;43.222;27.924;2022-10-30T13:45:28;100992.31;;;20.02;70.24
30875;BME280;17581;43.222;27.924;2022-10-30T13:50:47;100978.81;;;19.62;71.54
30875;BME280;17581;43.222;27.924;2022-10-30T13:53:23;101013.91;;;19.81;71.58
30875;BME280;17581;43.222;27.924;2022-10-30T13:55:51;100977.09;;;19.61;71.62
30875;BME280;17581;43.222;27.924;2022-10-30T13:58:25;101007.28;;;19.51;72.71
30875;BME280;17581;43.222;27.924;2022-10-30T14:03:55;100964.16;;;19.30;72.74
30875;BME280;17581;43.222;27.924;2022-10-30T14:06:43;100974.25;;;19.14;73.92
30875;BME280;17581;43.222;27.924;2022-10-30T14:11:45;100995.22;;;19.29;74.23
30875;BME280;17581;43.222;27.924;2022-10-30T14:17:15;100990.09;;;19.26;74.24
30875;BME280;17581;43.222;27.924;2022-10-30T14:22:32;100979.34;;;19.25;74.16
30875;BME280;17581;43.222;27.924;2022-10-30T14:24:59;100983.44;;;19.29;74.05
30875;BME280;17581;43.222;27.924;2022-10-30T14:27:30;100972.00;;;19.33;73.09
30875;BME280;17581;43.222;27.924;2022-10-30T14:29:57;100965.72;;;19.25;72.97
30875;BME280;17581;43.222;27.924;2022-10-30T14:39:52;100983.44;;;19.45;71.42
30875;BME280;17581;43.222;27.924;2022-10-30T14:50:30;100958.38;;;19.33;69.50
30875;BME280;17581;43.222;27.924;2022-10-30T14:58:22;100965.19;;;19.37;68.25
30875;BME280;17581;43.222;27.924;2022-10-30T15:00:49;100986.84;;;19.47;67.81